createdAt,value
2017-09-21T00:01:11.457Z,26.97
2017-09-21T00:03:40.528Z,26.10
2017-09-21T00:06:08.861Z,23.63
2017-09-21T00:08:37.262Z,25.03
2017-09-21T00:11:05.582Z,24.03
2017-09-21T00:13:34.663Z,25.97
2017-09-21T00:16:03.760Z,25.27
2017-09-21T00:18:32.836Z,24.93
2017-09-21T00:21:01.158Z,29.40
2017-09-21T00:23:29.455Z,27.90
2017-09-21T00:25:57.774Z,25.80
2017-09-21T00:28:26.083Z,27.73
2017-09-21T00:30:54.448Z,27.00
2017-09-21T00:33:23.543Z,26.47
2017-09-21T00:35:51.854Z,25.70
2017-09-21T00:38:20.185Z,29.23
2017-09-21T00:40:49.270Z,25.20
2017-09-21T00:43:17.616Z,27.30
2017-09-21T00:45:45.920Z,26.60
2017-09-21T00:48:14.301Z,26.57
2017-09-21T00:50:43.375Z,29.87
2017-09-21T00:53:11.896Z,31.13
2017-09-21T00:55:40.950Z,30.93
2017-09-21T00:58:09.264Z,31.20
2017-09-21T01:00:38.362Z,29.53
2017-09-21T01:03:06.689Z,29.03
2017-09-21T01:05:35.787Z,30.23
2017-09-21T01:08:04.093Z,27.63
2017-09-21T01:10:32.415Z,33.50
2017-09-21T01:13:00.726Z,30.03
2017-09-21T01:15:29.074Z,32.93
2017-09-21T01:17:57.354Z,32.53
2017-09-21T01:20:25.678Z,33.70
2017-09-21T01:22:53.977Z,32.10
2017-09-21T01:25:22.547Z,33.77
2017-09-21T01:27:51.614Z,37.97
2017-09-21T01:30:19.927Z,33.33
2017-09-21T01:32:48.266Z,31.17
2017-09-21T01:35:16.569Z,32.23
2017-09-21T01:37:45.657Z,32.10
2017-09-21T01:40:14.731Z,34.10
2017-09-21T01:42:43.080Z,40.50
2017-09-21T01:45:11.363Z,38.20
2017-09-21T01:47:40.728Z,35.97
2017-09-21T01:50:09.031Z,35.97
2017-09-21T01:52:37.328Z,36.60
2017-09-21T01:55:05.661Z,31.63
2017-09-21T01:57:33.970Z,37.43
2017-09-21T02:00:02.325Z,37.27
2017-09-21T02:02:30.632Z,35.30
2017-09-21T02:04:58.959Z,34.53
2017-09-21T02:07:28.051Z,37.17
2017-09-21T02:09:56.543Z,34.77
2017-09-21T02:12:24.912Z,38.07
2017-09-21T02:14:54.201Z,36.10
2017-09-21T02:17:23.270Z,36.57
2017-09-21T02:19:51.579Z,35.23
2017-09-21T02:22:20.671Z,35.63
2017-09-21T02:24:49.749Z,34.33
2017-09-21T02:27:18.855Z,40.23
2017-09-21T02:29:47.186Z,36.37
2017-09-21T02:32:15.518Z,34.00
2017-09-21T02:34:43.822Z,41.63
2017-09-21T02:37:12.164Z,39.20
2017-09-21T02:39:41.250Z,40.20
2017-09-21T02:42:09.760Z,41.80
2017-09-21T02:44:38.090Z,40.03
2017-09-21T02:47:06.408Z,37.40
2017-09-21T02:49:34.747Z,39.40
2017-09-21T02:52:03.034Z,40.27
2017-09-21T02:54:32.248Z,39.23
2017-09-21T02:57:00.573Z,38.67
2017-09-21T02:59:29.023Z,38.00
2017-09-21T03:01:57.326Z,37.83
2017-09-21T03:04:25.658Z,37.50
2017-09-21T03:06:53.976Z,35.33
2017-09-21T03:09:22.382Z,36.43
2017-09-21T03:11:50.790Z,34.53
2017-09-21T03:14:20.296Z,36.70
2017-09-21T03:16:49.377Z,35.23
2017-09-21T03:19:18.490Z,35.60
2017-09-21T03:21:46.838Z,38.70
2017-09-21T03:24:15.338Z,32.50
2017-09-21T03:26:44.508Z,35.97
2017-09-21T03:29:12.826Z,32.73
2017-09-21T03:31:41.151Z,34.93
2017-09-21T03:34:09.455Z,32.37
2017-09-21T03:36:38.555Z,34.70
2017-09-21T03:39:07.631Z,36.83
2017-09-21T03:41:35.959Z,34.70
2017-09-21T03:44:04.259Z,36.87
2017-09-21T03:46:32.786Z,36.47
2017-09-21T03:49:01.094Z,33.90
2017-09-21T03:51:29.393Z,31.20
2017-09-21T03:53:57.828Z,35.47
2017-09-21T03:56:26.138Z,33.27
2017-09-21T03:58:54.462Z,35.33
2017-09-21T04:01:22.778Z,40.07
2017-09-21T04:03:51.098Z,36.70
2017-09-21T04:06:19.508Z,39.13
2017-09-21T04:08:48.764Z,33.43
2017-09-21T04:11:17.079Z,37.17
2017-09-21T04:13:45.404Z,33.40
2017-09-21T04:16:13.751Z,32.73
2017-09-21T04:18:42.066Z,33.47
2017-09-21T04:21:10.407Z,30.90
2017-09-21T04:23:38.711Z,34.97
2017-09-21T04:26:07.051Z,33.87
2017-09-21T04:28:35.361Z,34.80
2017-09-21T04:31:03.908Z,34.37
2017-09-21T04:33:32.967Z,35.17
2017-09-21T04:36:01.277Z,31.30
2017-09-21T04:38:30.387Z,32.63
2017-09-21T04:40:58.705Z,30.37
2017-09-21T04:43:27.035Z,33.10
2017-09-21T04:45:55.404Z,32.00
2017-09-21T04:48:24.489Z,35.70
2017-09-21T04:50:53.564Z,36.47
2017-09-21T04:53:21.881Z,36.33
2017-09-21T04:55:50.204Z,35.67
2017-09-21T04:58:18.716Z,33.77
2017-09-21T05:00:47.043Z,32.67
2017-09-21T05:03:15.350Z,35.60
2017-09-21T05:05:44.484Z,32.60
2017-09-21T05:08:12.855Z,35.23
2017-09-21T05:10:42.140Z,34.90
2017-09-21T05:13:10.519Z,36.00
2017-09-21T05:15:38.898Z,37.33
2017-09-21T05:18:07.223Z,35.60
2017-09-21T05:20:35.522Z,36.90
2017-09-21T05:23:03.853Z,35.40
2017-09-21T05:25:32.229Z,33.17
2017-09-21T05:28:00.590Z,36.40
2017-09-21T05:30:28.882Z,38.17
2017-09-21T05:32:57.214Z,38.97
2017-09-21T05:35:25.515Z,37.23
2017-09-21T05:37:54.005Z,35.57
2017-09-21T05:40:23.083Z,36.60
2017-09-21T05:42:52.294Z,48.60
2017-09-21T05:45:21.366Z,42.10
2017-09-21T05:47:50.443Z,34.70
2017-09-21T05:50:18.778Z,39.30
2017-09-21T05:52:47.115Z,39.43
2017-09-21T05:55:15.440Z,32.23
2017-09-21T05:57:43.967Z,39.20
2017-09-21T06:00:12.583Z,35.03
2017-09-21T06:02:40.899Z,33.10
2017-09-21T06:05:09.215Z,36.17
2017-09-21T06:07:37.555Z,36.80
2017-09-21T06:10:05.862Z,41.30
2017-09-21T06:12:34.187Z,35.73
2017-09-21T06:15:02.503Z,36.37
2017-09-21T06:17:31.227Z,34.10
2017-09-21T06:19:59.508Z,37.30
2017-09-21T06:22:27.838Z,39.00
2017-09-21T06:24:56.148Z,33.50
2017-09-21T06:27:24.463Z,37.53
2017-09-21T06:29:52.784Z,38.97
2017-09-21T06:32:21.311Z,40.60
2017-09-21T06:34:49.631Z,35.90
2017-09-21T06:37:17.945Z,35.47
2017-09-21T06:39:46.282Z,31.87
2017-09-21T06:42:14.582Z,32.20
2017-09-21T06:44:43.675Z,36.83
2017-09-21T06:47:11.979Z,36.43
2017-09-21T06:49:40.754Z,35.40
2017-09-21T06:52:09.051Z,35.87
2017-09-21T06:54:37.362Z,34.57
2017-09-21T06:57:05.695Z,38.03
2017-09-21T06:59:34.007Z,38.03
2017-09-21T07:02:02.340Z,34.57
2017-09-21T07:04:30.663Z,32.37
2017-09-21T07:06:58.980Z,35.27
2017-09-21T07:09:28.069Z,38.47
2017-09-21T07:11:56.406Z,34.87
2017-09-21T07:14:24.715Z,33.63
2017-09-21T07:16:53.047Z,38.07
2017-09-21T07:19:21.356Z,37.83
2017-09-21T07:21:49.697Z,35.83
2017-09-21T07:24:18.006Z,40.07
2017-09-21T07:26:46.340Z,38.30
2017-09-21T07:29:14.651Z,38.70
2017-09-21T07:31:42.972Z,36.67
2017-09-21T07:34:12.747Z,33.50
2017-09-21T07:36:41.074Z,29.73
2017-09-21T07:39:09.381Z,32.27
2017-09-21T07:41:37.827Z,36.83
2017-09-21T07:44:06.159Z,33.63
2017-09-21T07:46:34.465Z,34.53
2017-09-21T07:49:02.768Z,36.47
2017-09-21T07:51:31.091Z,33.73
2017-09-21T07:53:59.419Z,32.07
2017-09-21T07:56:27.736Z,35.80
2017-09-21T07:58:56.831Z,32.63
2017-09-21T08:01:25.140Z,32.10
2017-09-21T08:03:54.270Z,34.07
2017-09-21T08:06:22.574Z,30.30
2017-09-21T08:08:51.938Z,31.77
2017-09-21T08:11:20.241Z,33.73
2017-09-21T08:13:48.540Z,32.53
2017-09-21T08:16:16.874Z,30.67
2017-09-21T08:18:45.190Z,34.73
2017-09-21T08:21:13.518Z,29.17
2017-09-21T08:23:41.860Z,33.07
2017-09-21T08:26:10.178Z,33.10
2017-09-21T08:28:38.485Z,32.33
2017-09-21T08:31:06.832Z,33.73
2017-09-21T08:33:35.135Z,34.50
2017-09-21T08:36:03.663Z,35.43
2017-09-21T08:38:32.733Z,36.90
2017-09-21T08:41:01.052Z,34.13
2017-09-21T08:43:30.134Z,32.97
2017-09-21T08:45:58.599Z,35.87
2017-09-21T08:48:26.955Z,29.47
2017-09-21T08:50:55.460Z,35.17
2017-09-21T08:53:24.550Z,36.37
2017-09-21T08:55:52.889Z,33.20
2017-09-21T08:58:22.154Z,33.03
2017-09-21T09:00:50.510Z,34.87
2017-09-21T09:03:18.971Z,35.73
2017-09-21T09:05:48.061Z,33.83
2017-09-21T09:08:17.162Z,30.07
2017-09-21T09:10:46.279Z,29.90
2017-09-21T09:13:14.625Z,31.13
2017-09-21T09:15:43.022Z,28.37
2017-09-21T09:18:12.114Z,31.80
2017-09-21T09:20:41.281Z,28.53
2017-09-21T09:23:10.395Z,29.90
2017-09-21T09:25:39.007Z,31.17
2017-09-21T09:28:07.370Z,28.50
2017-09-21T09:30:36.449Z,25.90
2017-09-21T09:33:04.768Z,26.77
2017-09-21T09:35:33.086Z,25.07
2017-09-21T09:38:01.438Z,24.77
2017-09-21T09:40:29.757Z,28.53
2017-09-21T09:42:58.090Z,23.83
2017-09-21T09:45:27.142Z,24.97
2017-09-21T09:47:56.455Z,23.33
2017-09-21T09:50:25.529Z,25.37
2017-09-21T09:52:53.840Z,25.53
2017-09-21T09:55:22.179Z,23.03
2017-09-21T09:57:50.474Z,21.50
2017-09-21T10:00:18.860Z,22.30
2017-09-21T10:02:47.148Z,21.87
2017-09-21T10:05:16.233Z,24.37
2017-09-21T10:07:45.297Z,24.20
2017-09-21T10:10:13.727Z,22.60
2017-09-21T10:12:42.040Z,25.90
2017-09-21T10:15:10.325Z,25.50
2017-09-21T10:17:38.655Z,26.77
2017-09-21T10:20:07.718Z,26.47
2017-09-21T10:22:36.827Z,26.00
2017-09-21T10:25:05.902Z,27.23
2017-09-21T10:27:34.407Z,27.33
2017-09-21T10:30:02.728Z,25.90
2017-09-21T10:32:31.024Z,24.30
2017-09-21T10:34:59.347Z,25.10
2017-09-21T10:37:27.687Z,22.80
2017-09-21T10:39:56.020Z,28.67
2017-09-21T10:42:24.322Z,22.23
2017-09-21T10:44:52.647Z,21.67
2017-09-21T10:47:20.963Z,22.50
2017-09-21T10:49:50.441Z,23.80
2017-09-21T10:52:18.746Z,25.93
2017-09-21T10:54:47.067Z,18.07
2017-09-21T10:57:16.181Z,20.33
2017-09-21T10:59:45.264Z,20.03
2017-09-21T11:02:13.555Z,20.87
2017-09-21T11:04:41.861Z,19.83
2017-09-21T11:07:10.171Z,19.70
2017-09-21T11:09:38.511Z,18.10
2017-09-21T11:12:06.960Z,21.80
2017-09-21T11:14:35.286Z,19.20
2017-09-21T11:17:03.619Z,20.33
2017-09-21T11:19:31.996Z,21.23
2017-09-21T11:22:00.360Z,19.17
2017-09-21T11:24:28.729Z,17.10
2017-09-21T11:26:57.821Z,15.23
2017-09-21T11:29:26.191Z,17.93
2017-09-21T11:31:55.281Z,15.17
2017-09-21T11:34:24.401Z,15.37
2017-09-21T11:36:52.677Z,13.30
2017-09-21T11:39:21.020Z,20.97
2017-09-21T11:41:50.115Z,14.33
2017-09-21T11:44:19.266Z,18.17
2017-09-21T11:46:47.598Z,14.60
2017-09-21T11:49:16.701Z,14.47
2017-09-21T11:51:45.010Z,13.90
2017-09-21T11:54:14.169Z,13.23
2017-09-21T11:56:42.510Z,15.17
2017-09-21T11:59:10.804Z,19.43
2017-09-21T12:01:39.122Z,18.10
2017-09-21T12:04:08.997Z,15.77
2017-09-21T12:06:38.147Z,17.17
2017-09-21T12:09:06.462Z,16.23
2017-09-21T12:11:35.582Z,17.37
2017-09-21T12:14:04.656Z,17.70
2017-09-21T12:16:34.179Z,32.53
2017-09-21T12:19:03.258Z,15.87
2017-09-21T12:21:32.372Z,13.40
2017-09-21T12:24:00.688Z,12.40
2017-09-21T12:26:29.007Z,13.93
2017-09-21T12:28:57.355Z,25.37
2017-09-21T12:31:25.663Z,17.37
2017-09-21T12:33:54.026Z,18.60
2017-09-21T12:36:22.324Z,13.70
2017-09-21T12:38:50.760Z,15.63
2017-09-21T12:41:19.055Z,18.43
2017-09-21T12:43:47.383Z,18.00
2017-09-21T12:46:15.718Z,11.63
2017-09-21T12:48:44.079Z,11.60
2017-09-21T12:51:12.424Z,11.93
2017-09-21T12:53:40.747Z,9.83
2017-09-21T12:56:09.092Z,9.13
2017-09-21T12:58:37.391Z,9.60
2017-09-21T13:01:05.720Z,9.50
2017-09-21T13:03:34.022Z,10.10
2017-09-21T13:06:02.462Z,10.80
2017-09-21T13:08:30.759Z,8.23
2017-09-21T13:10:59.070Z,12.60
2017-09-21T13:13:27.425Z,9.53
2017-09-21T13:15:55.722Z,11.20
2017-09-21T13:18:24.056Z,8.53
2017-09-21T13:20:53.106Z,9.63
2017-09-21T13:23:21.446Z,10.03
2017-09-21T13:25:49.785Z,9.00
2017-09-21T13:28:18.103Z,9.37
2017-09-21T13:30:46.429Z,9.70
2017-09-21T13:33:15.543Z,9.47
2017-09-21T13:35:43.906Z,10.17
2017-09-21T13:38:12.411Z,8.00
2017-09-21T13:40:40.715Z,9.63
2017-09-21T13:43:08.987Z,9.13
2017-09-21T13:45:37.342Z,9.47
2017-09-21T13:48:05.658Z,9.03
2017-09-21T13:50:33.984Z,8.57
2017-09-21T13:53:02.308Z,9.57
2017-09-21T13:55:30.634Z,9.57
2017-09-21T13:57:58.918Z,8.87
2017-09-21T14:00:27.218Z,8.80
2017-09-21T14:02:55.503Z,10.80
2017-09-21T14:05:23.954Z,11.70
2017-09-21T14:07:53.023Z,10.37
2017-09-21T14:10:21.329Z,11.73
2017-09-21T14:12:49.654Z,11.67
2017-09-21T14:15:18.719Z,10.30
2017-09-21T14:17:47.790Z,12.00
2017-09-21T14:20:16.861Z,11.90
2017-09-21T14:22:45.203Z,10.73
2017-09-21T14:25:13.522Z,11.00
2017-09-21T14:27:43.443Z,9.50
2017-09-21T14:30:12.506Z,9.77
2017-09-21T14:32:41.835Z,8.97
2017-09-21T14:35:10.911Z,9.70
2017-09-21T14:37:39.207Z,10.17
2017-09-21T14:40:08.296Z,9.60
2017-09-21T14:42:37.383Z,9.00
2017-09-21T14:45:05.701Z,9.97
2017-09-21T14:47:34.014Z,8.10
2017-09-21T14:50:02.306Z,10.37
2017-09-21T14:52:30.607Z,9.97
2017-09-21T14:54:59.695Z,10.73
2017-09-21T14:57:28.783Z,9.03
2017-09-21T14:59:57.107Z,9.60
2017-09-21T15:02:25.423Z,9.17
2017-09-21T15:04:53.747Z,9.43
2017-09-21T15:07:22.819Z,12.20
2017-09-21T15:09:51.886Z,12.63
2017-09-21T15:12:20.209Z,12.23
2017-09-21T15:14:48.516Z,10.13
2017-09-21T15:17:16.855Z,12.17
2017-09-21T15:19:45.163Z,11.37
2017-09-21T15:22:13.493Z,12.83
2017-09-21T15:24:41.787Z,10.87
2017-09-21T15:27:10.102Z,11.10
2017-09-21T15:29:38.406Z,9.93
2017-09-21T15:32:06.839Z,12.10
2017-09-21T15:34:35.136Z,14.20
2017-09-21T15:37:03.468Z,11.50
2017-09-21T15:39:31.806Z,12.03
2017-09-21T15:42:00.123Z,11.63
2017-09-21T15:44:28.447Z,11.33
2017-09-21T15:46:56.761Z,9.73
2017-09-21T15:49:25.881Z,10.70
2017-09-21T15:51:54.204Z,10.00
2017-09-21T15:54:22.522Z,9.30
2017-09-21T15:56:50.841Z,10.10
2017-09-21T15:59:19.163Z,11.20
2017-09-21T16:01:48.252Z,11.00
2017-09-21T16:04:17.460Z,11.87
2017-09-21T16:06:46.586Z,12.57
2017-09-21T16:09:14.883Z,9.03
2017-09-21T16:11:43.186Z,9.13
2017-09-21T16:14:11.498Z,12.87
2017-09-21T16:16:40.591Z,13.57
2017-09-21T16:19:09.663Z,12.53
2017-09-21T16:21:38.774Z,13.20
2017-09-21T16:24:07.083Z,14.47
2017-09-21T16:26:35.420Z,14.67
2017-09-21T16:29:04.494Z,11.77
2017-09-21T16:31:33.613Z,13.57
2017-09-21T16:34:02.678Z,10.50
2017-09-21T16:36:31.005Z,12.63
2017-09-21T16:38:59.330Z,12.97
2017-09-21T16:41:28.655Z,11.93
2017-09-21T16:43:57.732Z,14.37
2017-09-21T16:46:26.042Z,14.17
2017-09-21T16:48:54.406Z,13.17
2017-09-21T16:51:22.687Z,13.20
2017-09-21T16:53:51.026Z,11.47
2017-09-21T16:56:19.322Z,13.60
2017-09-21T16:58:47.683Z,15.07
2017-09-21T17:01:15.988Z,13.10
2017-09-21T17:03:45.080Z,13.40
2017-09-21T17:06:13.410Z,14.50
2017-09-21T17:08:41.719Z,12.07
2017-09-21T17:11:10.070Z,11.00
2017-09-21T17:13:38.362Z,11.17
2017-09-21T17:16:06.708Z,12.37
2017-09-21T17:18:35.019Z,13.33
2017-09-21T17:21:03.348Z,12.00
2017-09-21T17:23:31.703Z,9.50
2017-09-21T17:26:00.038Z,11.00
2017-09-21T17:28:28.347Z,12.90
2017-09-21T17:30:57.463Z,12.57
2017-09-21T17:33:25.813Z,12.43
2017-09-21T17:35:54.938Z,13.63
2017-09-21T17:38:23.272Z,12.00
2017-09-21T17:40:52.387Z,14.50
2017-09-21T17:43:21.466Z,12.27
2017-09-21T17:45:49.841Z,12.77
2017-09-21T17:48:18.969Z,11.20
2017-09-21T17:50:47.341Z,13.33
2017-09-21T17:53:16.425Z,13.23
2017-09-21T17:55:44.871Z,13.27
2017-09-21T17:58:13.985Z,11.80
2017-09-21T18:00:42.294Z,12.17
2017-09-21T18:03:10.632Z,12.40
2017-09-21T18:05:38.947Z,12.90
2017-09-21T18:08:07.288Z,12.80
2017-09-21T18:10:35.593Z,11.23
2017-09-21T18:13:04.710Z,13.80
2017-09-21T18:15:32.999Z,13.33
2017-09-21T18:18:01.351Z,14.70
2017-09-21T18:20:29.691Z,15.27
2017-09-21T18:22:57.975Z,12.93
2017-09-21T18:25:26.302Z,11.90
2017-09-21T18:27:54.603Z,12.33
2017-09-21T18:30:22.973Z,13.87
2017-09-21T18:32:51.306Z,13.00
2017-09-21T18:35:20.404Z,12.77
2017-09-21T18:37:49.488Z,13.10
2017-09-21T18:40:18.588Z,14.13
2017-09-21T18:42:47.648Z,14.70
2017-09-21T18:45:16.020Z,14.00
2017-09-21T18:47:44.318Z,12.50
2017-09-21T18:50:12.816Z,14.40
2017-09-21T18:52:41.885Z,14.30
2017-09-21T18:55:10.190Z,12.97
2017-09-21T18:57:39.270Z,12.77
2017-09-21T19:00:07.575Z,13.30
2017-09-21T19:02:35.906Z,13.30
2017-09-21T19:05:04.224Z,12.83
2017-09-21T19:07:33.304Z,13.47
2017-09-21T19:10:02.383Z,19.30
2017-09-21T19:12:30.759Z,15.20
2017-09-21T19:14:59.847Z,14.33
2017-09-21T19:17:29.587Z,15.17
2017-09-21T19:19:57.763Z,15.80
2017-09-21T19:22:27.335Z,15.30
2017-09-21T19:24:55.644Z,15.40
2017-09-21T19:27:23.979Z,18.40
2017-09-21T19:29:52.354Z,16.03
2017-09-21T19:32:20.687Z,16.50
2017-09-21T19:34:49.071Z,18.20
2017-09-21T19:37:17.381Z,18.50
2017-09-21T19:39:45.749Z,19.27
2017-09-21T19:42:14.047Z,15.13
2017-09-21T19:44:43.439Z,16.87
2017-09-21T19:47:11.785Z,18.87
2017-09-21T19:49:40.831Z,17.10
2017-09-21T19:52:09.191Z,19.60
2017-09-21T19:54:37.526Z,18.73
2017-09-21T19:57:05.860Z,21.07
2017-09-21T19:59:34.200Z,20.17
2017-09-21T20:02:02.519Z,21.43
2017-09-21T20:04:30.818Z,21.53
2017-09-21T20:06:59.157Z,20.73
2017-09-21T20:09:27.481Z,19.67
2017-09-21T20:11:56.555Z,22.00
2017-09-21T20:14:24.883Z,17.60
2017-09-21T20:16:53.215Z,18.90
2017-09-21T20:19:22.278Z,16.37
2017-09-21T20:21:50.616Z,23.90
2017-09-21T20:24:18.962Z,19.83
2017-09-21T20:26:47.281Z,19.93
2017-09-21T20:29:15.943Z,20.30
2017-09-21T20:31:44.247Z,19.33
2017-09-21T20:34:12.550Z,19.17
2017-09-21T20:36:40.878Z,21.93
2017-09-21T20:39:09.192Z,21.23
2017-09-21T20:41:37.519Z,19.23
2017-09-21T20:44:05.864Z,19.80
2017-09-21T20:46:34.368Z,18.57
2017-09-21T20:49:02.695Z,18.60
2017-09-21T20:51:31.007Z,17.67
2017-09-21T20:54:00.144Z,18.00
2017-09-21T20:56:28.459Z,20.07
2017-09-21T20:58:56.793Z,19.53
2017-09-21T21:01:25.107Z,20.60
2017-09-21T21:03:53.444Z,18.13
2017-09-21T21:06:21.742Z,20.20
2017-09-21T21:08:50.082Z,19.07
2017-09-21T21:11:18.404Z,18.23
2017-09-21T21:13:46.859Z,17.80
2017-09-21T21:16:15.178Z,17.67
2017-09-21T21:18:43.469Z,18.70
2017-09-21T21:21:11.791Z,17.43
2017-09-21T21:23:40.087Z,19.20
2017-09-21T21:26:08.421Z,18.73
2017-09-21T21:28:36.743Z,18.00
2017-09-21T21:31:05.091Z,18.10
2017-09-21T21:33:33.396Z,16.70
2017-09-21T21:36:01.737Z,19.77
2017-09-21T21:38:30.050Z,19.73
2017-09-21T21:40:58.359Z,18.63
2017-09-21T21:43:27.462Z,18.10
2017-09-21T21:45:56.535Z,17.70
2017-09-21T21:48:24.871Z,17.93
2017-09-21T21:50:53.192Z,19.70
2017-09-21T21:53:22.304Z,17.60
2017-09-21T21:55:50.598Z,19.87
2017-09-21T21:58:20.083Z,21.17
2017-09-21T22:00:49.158Z,21.93
2017-09-21T22:03:17.463Z,20.87
2017-09-21T22:05:45.799Z,25.13
2017-09-21T22:08:14.127Z,22.73
2017-09-21T22:10:43.208Z,19.67
2017-09-21T22:13:12.278Z,22.07
2017-09-21T22:15:40.595Z,20.43
2017-09-21T22:18:08.920Z,19.17
2017-09-21T22:20:37.264Z,22.50
2017-09-21T22:23:05.559Z,20.27
2017-09-21T22:25:34.191Z,20.57
2017-09-21T22:28:03.258Z,23.00
2017-09-21T22:30:31.578Z,21.07
2017-09-21T22:33:00.659Z,17.60
2017-09-21T22:35:28.938Z,20.03
2017-09-21T22:37:58.026Z,19.97
2017-09-21T22:40:26.354Z,17.13
2017-09-21T22:42:54.720Z,20.17
2017-09-21T22:45:23.006Z,18.67
2017-09-21T22:47:51.431Z,20.53
2017-09-21T22:50:20.502Z,17.47
2017-09-21T22:52:49.586Z,17.10
2017-09-21T22:55:17.943Z,16.90
2017-09-21T22:57:46.254Z,17.13
2017-09-21T23:00:15.374Z,18.27
2017-09-21T23:02:43.695Z,17.47
2017-09-21T23:05:12.022Z,17.67
2017-09-21T23:07:41.106Z,18.17
2017-09-21T23:10:10.223Z,18.40
2017-09-21T23:12:38.540Z,17.40
2017-09-21T23:15:06.884Z,17.70
2017-09-21T23:17:35.186Z,19.07
2017-09-21T23:20:04.288Z,15.57
2017-09-21T23:22:32.595Z,17.30
2017-09-21T23:25:01.717Z,17.33
2017-09-21T23:27:30.795Z,19.17
2017-09-21T23:29:59.486Z,17.53
2017-09-21T23:32:27.787Z,17.40
2017-09-21T23:34:56.091Z,17.83
2017-09-21T23:37:24.423Z,15.60
2017-09-21T23:39:53.507Z,18.63
2017-09-21T23:42:21.856Z,18.50
2017-09-21T23:44:50.164Z,17.40
2017-09-21T23:47:18.482Z,17.27
2017-09-21T23:49:46.781Z,17.97
2017-09-21T23:52:15.304Z,17.10
2017-09-21T23:54:43.591Z,17.87
2017-09-21T23:57:12.651Z,17.63
2017-09-21T23:59:40.973Z,17.80
